Time;durP1;ratioP1;P1;durP2;ratioP2;P2;SDS_P1;SDS_P2;PMS_P1;PMS_P2;Temp;Humidity;BMP_temperature;BMP_pressure;BME280_temperature;BME280_humidity;BME280_pressure;Samples;Min_cycle;Max_cycle;Signal;HPM_P1;HPM_P2
2022/07/09 00:02:03;;;;;;;7.72;5.15;;;19.80;66.90;;;;;;5116715;28;20024;-74
2022/07/09 00:04:29;;;;;;;10.07;5.57;;;19.80;66.90;;;;;;5098936;28;20020;-74
2022/07/09 00:06:55;;;;;;;9.43;5.22;;;19.70;67.80;;;;;;5116669;28;20087;-74
2022/07/09 00:09:21;;;;;;;7.25;5.47;;;19.70;66.70;;;;;;5116601;28;20036;-74
2022/07/09 00:11:46;;;;;;;7.63;5.60;;;19.60;66.60;;;;;;5116527;28;20024;-74
2022/07/09 00:14:12;;;;;;;7.85;5.75;;;19.40;67.20;;;;;;5116514;28;20064;-74
2022/07/09 00:16:37;;;;;;;8.48;5.45;;;19.30;67.70;;;;;;5116530;28;20028;-74
2022/07/09 00:19:03;;;;;;;7.10;5.07;;;19.20;68.00;;;;;;5116405;28;20032;-74
2022/07/09 00:21:29;;;;;;;8.10;5.63;;;19.10;68.00;;;;;;5116353;28;20038;-74
2022/07/09 00:23:54;;;;;;;9.38;5.53;;;19.20;68.00;;;;;;5098453;28;20051;-74
2022/07/09 00:26:21;;;;;;;9.18;6.22;;;19.30;67.90;;;;;;5116275;28;20043;-74
2022/07/09 00:28:47;;;;;;;9.98;6.85;;;19.20;67.70;;;;;;5116299;28;20028;-74
2022/07/09 00:31:12;;;;;;;8.63;5.85;;;19.20;67.80;;;;;;5116213;28;20044;-74
2022/07/09 00:33:38;;;;;;;6.68;5.55;;;19.20;67.80;;;;;;5115415;28;20035;-74
2022/07/09 00:36:04;;;;;;;11.52;6.70;;;19.20;67.70;;;;;;5116141;28;20020;-74
2022/07/09 00:38:29;;;;;;;10.55;6.60;;;19.20;67.80;;;;;;5116137;28;20035;-75
2022/07/09 00:40:55;;;;;;;10.20;6.68;;;19.20;68.00;;;;;;5116103;28;20031;-75
2022/07/09 00:43:22;;;;;;;11.32;6.50;;;19.20;68.00;;;;;;5116081;28;20028;-74
2022/07/09 00:45:48;;;;;;;9.18;6.03;;;19.10;68.20;;;;;;5115911;28;20107;-75
2022/07/09 00:48:14;;;;;;;10.48;6.45;;;19.00;68.20;;;;;;5115889;28;20028;-75
2022/07/09 00:50:41;;;;;;;10.00;6.53;;;19.00;68.00;;;;;;5115777;28;20024;-75
2022/07/09 00:53:10;;;;;;;9.23;6.50;;;18.90;68.20;;;;;;5097884;28;20028;-75
2022/07/09 00:55:37;;;;;;;9.18;6.50;;;18.80;69.00;;;;;;5115627;28;20059;-75
2022/07/09 00:58:03;;;;;;;11.40;7.10;;;18.80;69.60;;;;;;5115642;28;20024;-75
2022/07/09 01:00:29;;;;;;;10.18;6.93;;;18.80;70.20;;;;;;5097627;28;20044;-74
2022/07/09 01:02:55;;;;;;;9.82;6.82;;;18.90;70.40;;;;;;5115544;28;20023;-75
2022/07/09 01:05:20;;;;;;;10.65;6.72;;;18.90;70.40;;;;;;5115523;28;20020;-74
2022/07/09 01:07:46;;;;;;;9.50;6.75;;;18.90;70.60;;;;;;5115459;28;20119;-74
2022/07/09 01:10:12;;;;;;;11.30;7.05;;;19.00;70.50;;;;;;5115449;28;20020;-74
2022/07/09 01:12:38;;;;;;;9.75;6.53;;;19.00;70.30;;;;;;5097420;28;20040;-74
2022/07/09 01:15:05;;;;;;;12.52;7.10;;;19.10;70.60;;;;;;5115320;28;20048;-74
2022/07/09 01:17:38;;;;;;;10.23;7.00;;;19.00;70.60;;;;;;5115192;28;20099;-75
2022/07/09 01:20:04;;;;;;;11.82;6.93;;;18.90;70.80;;;;;;5115280;28;20020;-74
2022/07/09 01:22:30;;;;;;;11.60;6.65;;;18.90;70.70;;;;;;5115167;28;20115;-74
2022/07/09 01:24:57;;;;;;;10.48;6.60;;;18.90;71.00;;;;;;5115157;28;20050;-74
2022/07/09 01:27:22;;;;;;;11.15;7.32;;;18.90;71.80;;;;;;5097127;28;20454;-75
2022/07/09 01:29:49;;;;;;;11.68;7.70;;;18.90;71.00;;;;;;5114956;28;20041;-75
2022/07/09 01:32:18;;;;;;;10.60;6.82;;;18.90;71.20;;;;;;5114970;28;20020;-74
2022/07/09 01:34:44;;;;;;;11.52;7.20;;;18.90;70.90;;;;;;5114975;28;20028;-75
2022/07/09 01:37:09;;;;;;;9.68;7.13;;;19.00;71.20;;;;;;5114820;28;20035;-74
2022/07/09 01:39:35;;;;;;;10.18;7.07;;;18.90;71.50;;;;;;5114862;28;20028;-74
2022/07/09 01:42:00;;;;;;;10.30;7.10;;;18.90;71.30;;;;;;5114785;28;20032;-75
2022/07/09 01:44:27;;;;;;;10.65;6.93;;;18.90;72.10;;;;;;5113727;28;20028;-75
2022/07/09 01:46:53;;;;;;;11.10;6.65;;;18.90;71.10;;;;;;5114730;28;20038;-74
2022/07/09 01:49:19;;;;;;;12.00;7.20;;;18.90;71.10;;;;;;5114676;28;20038;-75
2022/07/09 01:51:44;;;;;;;9.32;7.07;;;18.90;70.50;;;;;;5114616;28;20028;-75
2022/07/09 01:54:10;;;;;;;10.05;6.65;;;18.80;70.30;;;;;;5114568;28;20112;-75
2022/07/09 01:56:35;;;;;;;10.70;6.97;;;18.80;70.30;;;;;;5114247;28;20131;-74
2022/07/09 01:59:01;;;;;;;11.18;6.88;;;18.50;70.80;;;;;;5114520;28;20024;-74
2022/07/09 02:01:27;;;;;;;9.93;7.20;;;18.60;71.00;;;;;;5096457;28;20032;-74
2022/07/09 02:03:52;;;;;;;12.63;7.63;;;18.60;70.80;;;;;;5114418;28;20032;-75
2022/07/09 02:06:18;;;;;;;10.55;7.30;;;18.60;70.90;;;;;;5096445;28;20106;-74
2022/07/09 02:08:45;;;;;;;11.93;7.20;;;18.70;71.10;;;;;;5114302;28;20054;-74
2022/07/09 02:11:10;;;;;;;14.77;7.88;;;18.70;71.10;;;;;;5114391;28;20095;-75
2022/07/09 02:13:36;;;;;;;12.02;7.35;;;18.70;71.20;;;;;;5114183;28;20043;-74
2022/07/09 02:16:02;;;;;;;11.00;7.28;;;18.70;71.50;;;;;;5096193;28;20035;-74
2022/07/09 02:18:28;;;;;;;12.23;7.82;;;18.60;71.60;;;;;;5096052;28;20062;-74
2022/07/09 02:20:55;;;;;;;13.80;7.90;;;18.60;71.50;;;;;;5114084;28;20020;-74
2022/07/09 02:23:22;;;;;;;13.70;8.52;;;18.60;71.70;;;;;;5114180;28;20020;-74
2022/07/09 02:25:48;;;;;;;13.20;7.90;;;18.60;71.80;;;;;;5114110;28;20012;-74
2022/07/09 02:28:13;;;;;;;13.88;8.07;;;18.50;71.90;;;;;;5095947;28;20029;-75
2022/07/09 02:30:39;;;;;;;14.07;7.75;;;18.50;72.30;;;;;;5114057;28;20040;-74
2022/07/09 02:33:05;;;;;;;12.73;7.55;;;18.40;72.40;;;;;;5113906;28;20517;-74
2022/07/09 02:35:30;;;;;;;10.25;7.00;;;18.50;72.50;;;;;;5096109;28;20167;-74
2022/07/09 02:37:56;;;;;;;11.73;7.25;;;18.50;72.30;;;;;;5113785;28;20028;-74
2022/07/09 02:40:22;;;;;;;11.57;7.38;;;18.60;72.00;;;;;;5113751;28;20425;-74
2022/07/09 02:42:47;;;;;;;11.10;7.18;;;18.40;71.90;;;;;;5113768;28;20028;-74
2022/07/09 02:45:13;;;;;;;10.90;7.50;;;18.40;71.70;;;;;;5113724;28;20040;-74
2022/07/09 02:47:39;;;;;;;10.38;6.93;;;18.30;71.50;;;;;;5113697;28;20051;-74
2022/07/09 02:50:05;;;;;;;11.02;7.30;;;18.30;71.80;;;;;;5113663;28;20103;-75
2022/07/09 02:52:31;;;;;;;11.98;7.72;;;18.20;71.80;;;;;;5113651;28;20024;-74
2022/07/09 02:54:57;;;;;;;16.35;7.50;;;18.30;71.80;;;;;;5113491;28;20051;-74
2022/07/09 02:57:22;;;;;;;11.65;7.53;;;18.30;71.80;;;;;;5113149;28;20079;-74
2022/07/09 02:59:48;;;;;;;10.30;6.82;;;18.30;71.60;;;;;;5113572;28;20044;-74
2022/07/09 03:02:13;;;;;;;11.93;6.95;;;18.30;71.40;;;;;;5113544;28;20044;-74
2022/07/09 03:04:39;;;;;;;11.05;6.53;;;18.20;71.70;;;;;;5113670;28;20020;-74
2022/07/09 03:07:05;;;;;;;10.63;6.95;;;18.10;71.50;;;;;;5113485;28;20032;-74
2022/07/09 03:09:30;;;;;;;10.63;6.53;;;18.10;71.50;;;;;;5113470;28;20044;-74
2022/07/09 03:11:56;;;;;;;12.48;7.00;;;18.00;71.50;;;;;;5113446;28;20055;-74
2022/07/09 03:14:21;;;;;;;10.60;6.88;;;18.10;71.20;;;;;;5113370;28;20032;-74
2022/07/09 03:16:47;;;;;;;10.98;7.07;;;18.10;70.80;;;;;;5113336;28;20035;-74
2022/07/09 03:19:13;;;;;;;11.98;7.10;;;18.10;70.50;;;;;;5113356;28;20425;-74
2022/07/09 03:21:39;;;;;;;13.52;7.90;;;18.10;70.40;;;;;;5113330;28;20012;-75
2022/07/09 03:24:05;;;;;;;13.05;8.27;;;18.00;70.60;;;;;;5095641;28;20027;-75
2022/07/09 03:26:31;;;;;;;13.50;8.02;;;18.00;70.80;;;;;;5113286;28;20020;-75
2022/07/09 03:28:56;;;;;;;13.00;8.02;;;18.10;71.00;;;;;;5113192;28;20040;-75
2022/07/09 03:31:22;;;;;;;13.40;7.85;;;18.00;71.10;;;;;;5078591;28;20035;-74
2022/07/09 03:33:49;;;;;;;14.38;8.20;;;18.00;71.70;;;;;;5113236;28;20036;-74
2022/07/09 03:36:15;;;;;;;13.95;8.13;;;17.90;71.90;;;;;;5113142;28;20031;-74
2022/07/09 03:38:40;;;;;;;14.88;8.05;;;18.00;71.90;;;;;;5113183;28;20020;-74
2022/07/09 03:41:06;;;;;;;13.48;8.80;;;17.90;72.10;;;;;;5095199;28;20039;-74
2022/07/09 03:43:32;;;;;;;14.10;8.05;;;17.90;72.00;;;;;;5113186;28;20062;-74
2022/07/09 03:45:57;;;;;;;16.42;9.07;;;17.80;72.40;;;;;;5113133;28;20468;-74
2022/07/09 03:48:23;;;;;;;14.88;8.57;;;17.70;72.90;;;;;;5113083;28;20020;-75
2022/07/09 03:50:48;;;;;;;16.15;8.63;;;17.50;73.60;;;;;;5095284;28;20058;-74
2022/07/09 03:53:14;;;;;;;15.88;9.07;;;17.50;74.10;;;;;;5113042;28;20036;-74
2022/07/09 03:55:39;;;;;;;13.73;8.25;;;17.60;74.00;;;;;;5112842;28;20072;-75
2022/07/09 03:58:05;;;;;;;15.40;9.27;;;17.70;73.60;;;;;;5112948;28;20036;-75
2022/07/09 04:00:31;;;;;;;14.60;8.85;;;17.70;73.70;;;;;;5113014;28;20024;-75
2022/07/09 04:02:56;;;;;;;13.85;7.72;;;17.70;74.40;;;;;;5112985;28;20032;-75
2022/07/09 04:05:22;;;;;;;15.30;8.57;;;17.80;73.40;;;;;;5113073;28;20024;-75
2022/07/09 04:07:47;;;;;;;17.50;8.02;;;17.80;73.20;;;;;;5096122;28;20032;-75
2022/07/09 04:10:13;;;;;;;13.90;8.65;;;17.90;73.20;;;;;;5116637;28;20024;-76
2022/07/09 04:12:39;;;;;;;15.45;8.50;;;17.90;73.10;;;;;;5116565;28;20418;-74
2022/07/09 04:15:05;;;;;;;14.43;8.82;;;17.90;73.10;;;;;;5116531;28;20055;-74
2022/07/09 04:17:30;;;;;;;15.38;8.77;;;17.90;73.60;;;;;;5116410;28;20043;-75
2022/07/09 04:19:56;;;;;;;15.77;8.85;;;17.80;73.80;;;;;;5116581;28;20024;-74
2022/07/09 04:22:22;;;;;;;16.20;9.70;;;17.80;74.00;;;;;;5116376;28;20032;-74
2022/07/09 04:24:47;;;;;;;17.30;9.57;;;17.80;74.50;;;;;;5116468;28;20024;-74
2022/07/09 04:27:13;;;;;;;16.17;8.63;;;17.80;74.80;;;;;;5116278;28;20495;-74
2022/07/09 04:29:38;;;;;;;15.40;8.77;;;17.80;74.20;;;;;;5116199;28;20067;-74
2022/07/09 04:32:04;;;;;;;17.27;9.32;;;17.80;74.20;;;;;;5116328;28;20043;-74
2022/07/09 04:34:30;;;;;;;21.50;10.48;;;17.70;74.70;;;;;;5116139;28;20040;-75
2022/07/09 04:36:55;;;;;;;17.27;10.30;;;17.70;74.90;;;;;;5116019;28;20020;-74
2022/07/09 04:39:24;;;;;;;17.95;10.48;;;17.70;75.40;;;;;;5116050;28;20539;-74
2022/07/09 04:41:50;;;;;;;17.35;10.75;;;17.70;75.80;;;;;;5115979;28;20012;-74
2022/07/09 04:44:15;;;;;;;17.83;10.43;;;17.70;76.70;;;;;;5097928;28;20028;-74
2022/07/09 04:46:43;;;;;;;21.52;12.15;;;17.70;77.20;;;;;;5116038;28;20035;-74
2022/07/09 04:49:09;;;;;;;20.33;10.90;;;17.70;78.10;;;;;;5098025;28;20027;-75
2022/07/09 04:51:35;;;;;;;20.25;11.52;;;17.70;78.30;;;;;;5115843;28;20024;-75
2022/07/09 04:54:00;;;;;;;22.80;12.13;;;17.70;78.40;;;;;;5115784;28;20031;-75
2022/07/09 04:56:26;;;;;;;20.50;12.32;;;17.90;78.10;;;;;;5115486;28;20051;-75
2022/07/09 04:58:52;;;;;;;20.75;12.27;;;18.00;78.20;;;;;;5115705;28;20055;-75
2022/07/09 05:01:18;;;;;;;22.15;13.00;;;18.00;77.90;;;;;;5115621;28;20028;-75
2022/07/09 05:03:46;;;;;;;24.77;13.65;;;18.00;78.10;;;;;;5115602;28;20027;-75
2022/07/09 05:06:15;;;;;;;22.75;13.45;;;18.00;78.50;;;;;;5115505;28;20016;-75
2022/07/09 05:08:41;;;;;;;24.38;14.23;;;18.00;78.40;;;;;;5115491;28;20064;-75
2022/07/09 05:11:07;;;;;;;23.60;13.18;;;18.20;78.30;;;;;;5097457;28;20036;-74
2022/07/09 05:13:32;;;;;;;25.40;14.02;;;18.30;77.90;;;;;;5115393;28;20028;-75
2022/07/09 05:15:58;;;;;;;23.02;13.43;;;18.40;77.60;;;;;;5115343;28;20088;-75
2022/07/09 05:18:24;;;;;;;25.63;14.45;;;18.40;77.50;;;;;;5115033;28;20032;-75
2022/07/09 05:20:49;;;;;;;21.63;13.05;;;18.50;77.60;;;;;;5115397;28;20035;-75
2022/07/09 05:23:15;;;;;;;22.30;13.48;;;18.40;77.80;;;;;;5115203;28;20074;-75
2022/07/09 05:25:41;;;;;;;21.73;14.27;;;18.40;78.30;;;;;;5115134;28;20024;-75
2022/07/09 05:28:06;;;;;;;22.10;13.95;;;18.40;78.00;;;;;;5115037;28;20031;-75
2022/07/09 05:30:36;;;;;;;22.42;13.65;;;18.50;77.80;;;;;;5115058;28;20038;-75
2022/07/09 05:33:03;;;;;;;24.08;14.50;;;18.50;77.70;;;;;;5115058;28;20043;-75
2022/07/09 05:35:29;;;;;;;23.77;13.90;;;18.60;79.00;;;;;;5114949;28;20027;-75
2022/07/09 05:37:55;;;;;;;26.30;15.50;;;18.60;77.90;;;;;;5114816;28;20028;-75
2022/07/09 05:40:20;;;;;;;22.95;14.02;;;18.60;77.70;;;;;;5114850;28;20039;-75
2022/07/09 05:42:46;;;;;;;27.88;14.07;;;18.60;78.10;;;;;;5114847;28;20040;-75
2022/07/09 05:45:12;;;;;;;27.23;13.48;;;18.60;77.90;;;;;;5114788;28;20110;-75
2022/07/09 05:47:38;;;;;;;23.63;12.77;;;18.70;78.30;;;;;;5114739;28;20058;-75
2022/07/09 05:50:04;;;;;;;23.48;14.15;;;18.70;78.20;;;;;;5114661;28;20028;-75
2022/07/09 05:52:29;;;;;;;24.80;13.55;;;18.70;78.30;;;;;;5114590;28;20028;-75
2022/07/09 05:54:55;;;;;;;23.85;12.55;;;18.70;78.70;;;;;;5096579;28;20095;-75
2022/07/09 05:57:21;;;;;;;23.88;13.05;;;18.80;78.90;;;;;;5114332;28;20072;-75
2022/07/09 05:59:46;;;;;;;22.63;12.95;;;18.80;78.80;;;;;;5114504;28;20024;-75
2022/07/09 06:02:12;;;;;;;21.40;12.20;;;18.80;79.80;;;;;;5114602;28;20070;-75
2022/07/09 06:04:38;;;;;;;20.77;12.05;;;18.80;78.80;;;;;;5114387;28;20020;-75
2022/07/09 06:07:04;;;;;;;21.15;11.80;;;18.80;78.70;;;;;;5096688;28;20029;-75
2022/07/09 06:09:29;;;;;;;21.65;12.52;;;18.90;78.60;;;;;;5114323;28;20032;-75
2022/07/09 06:11:55;;;;;;;20.13;12.43;;;18.90;78.70;;;;;;5096326;28;20050;-74
2022/07/09 06:14:20;;;;;;;21.80;12.43;;;19.00;78.80;;;;;;5114078;28;20028;-74
2022/07/09 06:16:47;;;;;;;20.92;12.45;;;19.00;79.00;;;;;;5114153;28;20517;-74
2022/07/09 06:19:14;;;;;;;20.88;11.75;;;19.00;79.20;;;;;;5114134;28;20024;-74
2022/07/09 06:21:40;;;;;;;20.85;11.88;;;19.00;78.80;;;;;;5114115;28;20024;-74
2022/07/09 06:24:06;;;;;;;20.48;11.65;;;19.10;78.60;;;;;;5096303;28;20028;-75
2022/07/09 06:26:33;;;;;;;20.23;11.60;;;19.10;78.40;;;;;;5114029;28;20088;-74
2022/07/09 06:28:59;;;;;;;19.20;11.38;;;19.20;78.10;;;;;;5113898;28;20042;-74
2022/07/09 06:31:25;;;;;;;18.40;11.60;;;19.20;77.70;;;;;;5113396;28;20084;-74
2022/07/09 06:33:50;;;;;;;18.15;10.70;;;19.30;77.40;;;;;;5113918;28;20494;-74
2022/07/09 06:36:16;;;;;;;18.30;11.00;;;19.40;77.40;;;;;;5113798;28;20420;-74
2022/07/09 06:41:26;;;;;;;18.50;10.65;;;19.50;76.90;;;;;;5114070;28;20046;-75
2022/07/09 06:43:51;;;;;;;18.27;10.57;;;19.50;76.90;;;;;;5113911;28;20025;-75
2022/07/09 06:46:17;;;;;;;17.90;10.30;;;19.60;76.70;;;;;;5113668;28;20108;-75
2022/07/09 06:48:42;;;;;;;17.83;10.70;;;19.60;77.00;;;;;;5113842;28;20035;-75
2022/07/09 06:51:08;;;;;;;16.77;10.43;;;19.60;76.70;;;;;;5113650;28;20035;-75
2022/07/09 06:53:34;;;;;;;16.73;10.40;;;19.70;76.80;;;;;;5113634;28;20024;-75
2022/07/09 06:55:59;;;;;;;17.70;10.60;;;19.70;76.80;;;;;;5113507;28;20086;-75
2022/07/09 06:58:25;;;;;;;13.48;9.45;;;19.70;76.50;;;;;;5113484;28;20103;-75
2022/07/09 07:00:50;;;;;;;16.40;10.40;;;19.70;76.20;;;;;;5113563;28;20024;-74
2022/07/09 07:03:16;;;;;;;14.70;10.10;;;19.70;77.00;;;;;;5113553;28;20028;-75
2022/07/09 07:05:41;;;;;;;18.58;11.00;;;19.70;76.20;;;;;;5113466;28;20051;-75
2022/07/09 07:08:07;;;;;;;16.42;10.30;;;19.80;76.40;;;;;;5113504;28;20035;-75
2022/07/09 07:10:33;;;;;;;16.58;10.25;;;19.80;76.00;;;;;;5113460;28;20039;-74
2022/07/09 07:12:58;;;;;;;14.50;9.05;;;19.90;75.60;;;;;;5095678;28;20036;-75
2022/07/09 07:15:24;;;;;;;17.65;10.10;;;19.90;75.40;;;;;;5113406;28;20035;-75
2022/07/09 07:17:49;;;;;;;14.02;9.20;;;19.90;75.40;;;;;;5113332;28;20028;-75
2022/07/09 07:20:17;;;;;;;14.65;9.98;;;20.00;75.50;;;;;;5113379;28;20051;-75
2022/07/09 07:22:43;;;;;;;17.10;9.60;;;20.00;75.60;;;;;;5113380;28;20020;-75
2022/07/09 07:25:09;;;;;;;15.13;10.10;;;20.00;75.70;;;;;;5113314;28;20032;-74
2022/07/09 07:27:34;;;;;;;14.90;8.60;;;20.20;75.70;;;;;;5113302;28;20024;-74
2022/07/09 07:30:00;;;;;;;12.15;8.32;;;20.20;75.10;;;;;;5113195;28;20050;-74
2022/07/09 07:32:26;;;;;;;14.18;8.95;;;20.20;75.40;;;;;;5113273;28;20032;-74
2022/07/09 07:34:51;;;;;;;11.25;7.43;;;20.30;75.40;;;;;;5113223;28;20069;-74
2022/07/09 07:37:17;;;;;;;11.70;7.05;;;20.40;74.80;;;;;;5113147;28;20043;-74
2022/07/09 07:39:42;;;;;;;9.27;6.05;;;20.50;74.20;;;;;;5113177;28;20054;-74
2022/07/09 07:42:08;;;;;;;11.82;7.55;;;20.50;73.70;;;;;;5113166;28;20029;-74
2022/07/09 07:44:34;;;;;;;10.65;6.55;;;20.60;73.20;;;;;;5117067;28;20021;-74
2022/07/09 07:46:59;;;;;;;10.60;6.60;;;20.50;73.20;;;;;;5099067;28;20036;-74
2022/07/09 07:49:25;;;;;;;10.77;6.80;;;20.60;73.50;;;;;;5117011;28;20027;-74
2022/07/09 07:51:51;;;;;;;11.02;6.80;;;20.60;73.30;;;;;;5116971;28;20032;-74
2022/07/09 07:54:16;;;;;;;12.65;7.55;;;20.60;73.20;;;;;;5116956;28;20053;-74
2022/07/09 07:56:42;;;;;;;14.07;6.78;;;20.70;73.10;;;;;;5116667;28;20078;-74
2022/07/09 07:59:08;;;;;;;12.77;6.88;;;20.70;73.00;;;;;;5116856;28;20020;-74
2022/07/09 08:01:34;;;;;;;11.90;6.97;;;20.80;72.90;;;;;;5116791;28;20154;-74
2022/07/09 08:03:59;;;;;;;10.43;6.53;;;20.90;72.80;;;;;;5098880;28;20044;-74
2022/07/09 08:06:25;;;;;;;12.48;7.30;;;20.90;73.10;;;;;;5116610;28;20028;-74
2022/07/09 08:08:51;;;;;;;12.50;6.95;;;21.00;73.50;;;;;;5116795;28;20024;-74
2022/07/09 08:11:17;;;;;;;12.52;7.43;;;21.00;72.60;;;;;;5116605;28;20391;-74
2022/07/09 08:13:42;;;;;;;12.07;6.55;;;21.10;72.20;;;;;;5116591;28;20054;-74
2022/07/09 08:16:08;;;;;;;14.00;7.53;;;21.10;70.80;;;;;;5116513;28;20024;-74
2022/07/09 08:18:33;;;;;;;11.18;7.07;;;21.10;71.40;;;;;;5116403;28;20032;-74
2022/07/09 08:20:59;;;;;;;12.40;7.50;;;21.30;71.20;;;;;;5116435;28;20024;-74
2022/07/09 08:23:25;;;;;;;14.60;8.35;;;21.20;70.50;;;;;;5116385;28;20026;-74
2022/07/09 08:25:50;;;;;;;12.95;7.32;;;21.20;70.70;;;;;;5116328;28;20031;-74
2022/07/09 08:28:16;;;;;;;11.73;7.18;;;21.20;70.40;;;;;;5116243;28;20039;-74
2022/07/09 08:30:42;;;;;;;11.73;7.30;;;21.30;71.50;;;;;;5116389;28;20024;-74
2022/07/09 08:33:07;;;;;;;9.50;6.95;;;21.40;71.00;;;;;;5098444;28;20034;-73
2022/07/09 08:35:33;;;;;;;10.10;7.25;;;21.40;71.70;;;;;;5116135;28;20048;-74
2022/07/09 08:37:59;;;;;;;12.38;7.00;;;21.50;71.10;;;;;;5116005;28;20031;-74
2022/07/09 08:40:30;;;;;;;10.20;6.85;;;21.60;70.20;;;;;;5116006;28;20025;-73
2022/07/09 08:43:00;;;;;;;11.50;7.00;;;21.70;69.80;;;;;;5116067;28;20017;-73
2022/07/09 08:45:28;;;;;;;10.82;7.28;;;21.80;70.50;;;;;;5116013;28;20024;-74
2022/07/09 08:47:54;;;;;;;11.70;7.25;;;21.70;69.80;;;;;;5115918;28;20028;-73
2022/07/09 08:50:21;;;;;;;9.70;6.53;;;21.70;69.20;;;;;;5115859;28;20096;-73
2022/07/09 08:52:49;;;;;;;9.57;6.40;;;21.80;69.00;;;;;;5115804;28;20036;-73
2022/07/09 08:55:15;;;;;;;10.13;6.70;;;21.90;68.90;;;;;;5115109;28;20510;-73
2022/07/09 08:57:41;;;;;;;11.70;7.80;;;22.00;68.40;;;;;;5115836;28;20020;-73
2022/07/09 09:00:07;;;;;;;8.80;6.78;;;21.90;67.40;;;;;;5115799;28;20461;-74
2022/07/09 09:02:39;;;;;;;9.90;6.65;;;22.00;67.30;;;;;;5097892;28;20031;-74
2022/07/09 09:05:15;;;;;;;13.02;7.70;;;22.00;67.60;;;;;;5115624;28;20020;-74
2022/07/09 09:07:42;;;;;;;11.48;7.50;;;22.00;66.50;;;;;;5115516;28;20095;-74
2022/07/09 09:10:08;;;;;;;11.52;8.15;;;22.00;67.40;;;;;;5115490;28;20023;-74
2022/07/09 09:12:33;;;;;;;12.55;8.38;;;22.00;67.80;;;;;;5115417;28;20056;-74
2022/07/09 09:15:00;;;;;;;12.15;8.32;;;22.00;67.70;;;;;;5115509;28;20028;-74
2022/07/09 09:17:25;;;;;;;13.65;8.07;;;22.00;68.00;;;;;;5115292;28;20047;-74
2022/07/09 09:19:51;;;;;;;13.02;7.78;;;22.10;67.90;;;;;;5115307;28;20020;-73
2022/07/09 09:22:17;;;;;;;12.90;7.60;;;22.20;67.70;;;;;;5097302;28;20028;-74
2022/07/09 09:24:43;;;;;;;11.40;7.63;;;22.20;66.00;;;;;;5115209;28;20028;-74
2022/07/09 09:27:09;;;;;;;11.02;8.13;;;22.20;65.90;;;;;;5115277;28;20031;-74
2022/07/09 09:29:39;;;;;;;15.35;7.25;;;22.20;65.70;;;;;;5115083;28;20425;-74
2022/07/09 09:32:11;;;;;;;10.50;7.57;;;22.30;66.40;;;;;;5115154;28;20023;-74
2022/07/09 09:34:37;;;;;;;9.40;6.65;;;22.40;65.80;;;;;;5115053;28;20040;-74
2022/07/09 09:37:02;;;;;;;13.65;7.68;;;22.50;65.70;;;;;;5115023;28;20039;-74
2022/07/09 09:39:29;;;;;;;11.00;8.13;;;22.50;65.80;;;;;;5114886;28;20083;-74
2022/07/09 09:41:56;;;;;;;12.38;7.75;;;22.50;65.00;;;;;;5114872;28;20029;-74
2022/07/09 09:44:30;;;;;;;11.38;7.80;;;22.50;65.40;;;;;;5114807;28;20023;-73
2022/07/09 09:46:57;;;;;;;11.07;7.85;;;22.50;65.20;;;;;;5114778;28;20049;-73
2022/07/09 09:49:23;;;;;;;14.95;9.40;;;22.50;65.20;;;;;;5114729;28;20020;-73
2022/07/09 09:52:07;;;;;;;14.20;8.75;;;22.40;65.10;;;;;;5114679;28;20063;-74
2022/07/09 09:54:35;;;;;;;14.32;9.25;;;22.40;65.20;;;;;;5096743;28;20024;-74
2022/07/09 09:57:06;;;;;;;15.63;9.75;;;22.40;65.40;;;;;;5114332;28;20066;-74
2022/07/09 09:59:36;;;;;;;16.77;10.38;;;22.40;66.10;;;;;;5114705;28;20016;-74
2022/07/09 10:02:02;;;;;;;17.08;9.90;;;22.40;66.40;;;;;;5114678;28;20031;-74
2022/07/09 10:04:29;;;;;;;13.68;9.95;;;22.50;66.90;;;;;;5096499;28;20048;-73
2022/07/09 10:06:55;;;;;;;12.93;8.50;;;22.60;66.70;;;;;;5113718;28;20032;-74
2022/07/09 10:09:21;;;;;;;17.15;9.23;;;22.70;65.90;;;;;;5114324;28;20039;-73
2022/07/09 10:11:49;;;;;;;13.45;9.00;;;22.80;66.20;;;;;;5114305;28;20035;-73
2022/07/09 10:14:24;;;;;;;16.48;10.65;;;22.90;66.00;;;;;;5114278;28;20028;-73
2022/07/09 10:16:52;;;;;;;15.30;10.57;;;23.10;65.40;;;;;;5114139;28;20036;-73
2022/07/09 10:19:33;;;;;;;14.68;9.73;;;23.00;64.60;;;;;;5114022;28;20043;-73
2022/07/09 10:21:59;;;;;;;15.55;9.70;;;23.00;64.80;;;;;;5114117;28;20023;-74
2022/07/09 10:24:27;;;;;;;12.98;8.77;;;23.00;65.00;;;;;;5096209;28;20080;-73
2022/07/09 10:27:01;;;;;;;13.98;8.95;;;23.00;64.50;;;;;;5114052;28;20032;-73
2022/07/09 10:29:28;;;;;;;11.32;8.05;;;23.10;64.50;;;;;;5113970;28;20072;-73
2022/07/09 10:31:55;;;;;;;10.95;7.95;;;23.10;64.40;;;;;;5113960;28;20024;-73
2022/07/09 10:34:38;;;;;;;11.68;8.98;;;23.20;64.30;;;;;;5113888;28;20052;-73
2022/07/09 10:37:05;;;;;;;14.20;8.93;;;23.30;65.00;;;;;;5113980;28;20020;-73
2022/07/09 10:39:32;;;;;;;14.88;9.13;;;23.30;64.30;;;;;;5096089;28;20047;-73
2022/07/09 10:42:18;;;;;;;13.90;9.75;;;23.30;64.40;;;;;;5113836;28;20033;-73
2022/07/09 10:44:45;;;;;;;13.07;9.45;;;23.50;64.40;;;;;;5095938;28;20020;-74
2022/07/09 10:47:11;;;;;;;12.40;9.60;;;23.50;64.10;;;;;;5095870;28;20028;-74
2022/07/09 10:49:37;;;;;;;13.32;8.30;;;23.60;64.00;;;;;;5113682;28;20086;-74
2022/07/09 10:52:04;;;;;;;12.13;8.40;;;23.60;64.10;;;;;;5113815;28;20058;-73
2022/07/09 10:54:30;;;;;;;13.10;9.55;;;23.80;64.10;;;;;;5113650;28;20356;-73
2022/07/09 10:56:56;;;;;;;15.10;10.02;;;23.90;63.50;;;;;;5075425;28;20044;-74
2022/07/09 10:59:23;;;;;;;16.30;9.63;;;23.90;63.10;;;;;;5093300;28;20033;-74
2022/07/09 11:01:50;;;;;;;14.32;9.13;;;23.80;63.00;;;;;;5093249;28;20465;-74
2022/07/09 11:04:29;;;;;;;16.10;9.30;;;23.70;63.00;;;;;;5093297;28;20021;-74
2022/07/09 11:06:55;;;;;;;13.82;9.80;;;23.60;63.30;;;;;;5093142;28;20075;-74
2022/07/09 11:09:21;;;;;;;12.60;9.25;;;23.60;63.80;;;;;;5092245;28;20037;-74
2022/07/09 11:11:47;;;;;;;10.45;7.65;;;23.50;64.00;;;;;;5092307;28;20033;-74
2022/07/09 11:14:13;;;;;;;9.70;7.65;;;23.50;63.50;;;;;;5093241;28;20027;-75
2022/07/09 11:16:39;;;;;;;9.02;7.28;;;23.50;63.40;;;;;;5093904;28;20021;-75
2022/07/09 11:19:21;;;;;;;8.00;5.80;;;23.50;63.40;;;;;;5097284;28;20063;-75
2022/07/09 11:21:47;;;;;;;6.63;4.47;;;23.50;62.50;;;;;;5097366;28;20021;-74
2022/07/09 11:24:24;;;;;;;6.50;5.15;;;23.60;62.90;;;;;;5097225;28;20044;-74
2022/07/09 11:26:50;;;;;;;7.05;4.70;;;23.70;62.20;;;;;;5097209;28;20032;-73
2022/07/09 11:29:19;;;;;;;5.75;4.80;;;23.70;62.00;;;;;;5097024;28;20036;-72
2022/07/09 11:31:49;;;;;;;4.88;4.13;;;23.70;60.90;;;;;;5096044;28;20033;-74
2022/07/09 11:34:16;;;;;;;7.82;4.30;;;23.90;61.60;;;;;;5097009;28;20094;-72
2022/07/09 11:36:52;;;;;;;4.97;4.30;;;24.00;61.60;;;;;;5096928;28;20559;-73
2022/07/09 11:39:33;;;;;;;7.75;4.68;;;24.20;60.30;;;;;;5097112;28;20017;-72
2022/07/09 11:42:01;;;;;;;5.95;4.72;;;24.30;59.60;;;;;;5096911;28;20020;-73
2022/07/09 11:44:28;;;;;;;6.35;4.68;;;24.30;59.00;;;;;;5096809;28;20020;-73
2022/07/09 11:47:08;;;;;;;8.23;4.80;;;24.10;58.30;;;;;;5096785;28;20025;-73
2022/07/09 11:49:40;;;;;;;6.22;4.82;;;24.10;59.20;;;;;;5096737;28;20048;-73
2022/07/09 11:52:21;;;;;;;4.97;4.47;;;24.00;59.50;;;;;;5096748;28;20020;-73
2022/07/09 11:54:58;;;;;;;4.97;4.50;;;23.90;58.80;;;;;;5096624;28;20024;-73
2022/07/09 11:57:24;;;;;;;5.80;4.10;;;23.90;59.40;;;;;;5116488;28;20044;-74
2022/07/09 11:59:50;;;;;;;4.60;4.20;;;23.90;60.20;;;;;;5116833;28;20039;-74
2022/07/09 12:02:31;;;;;;;5.05;3.47;;;24.00;58.60;;;;;;5116961;28;20024;-73
2022/07/09 12:04:58;;;;;;;3.55;3.10;;;24.10;58.70;;;;;;5116807;28;20028;-73
2022/07/09 12:07:24;;;;;;;3.63;3.10;;;24.00;58.40;;;;;;5116677;28;20069;-73
2022/07/09 12:10:05;;;;;;;3.30;2.63;;;24.00;58.40;;;;;;5116663;28;20028;-73
2022/07/09 12:12:32;;;;;;;3.33;2.53;;;24.10;58.90;;;;;;5116540;28;20028;-73
2022/07/09 12:14:58;;;;;;;3.80;2.70;;;24.10;57.80;;;;;;5116569;28;20099;-73
2022/07/09 12:17:25;;;;;;;3.95;2.20;;;24.00;57.30;;;;;;5098583;28;20028;-73
2022/07/09 12:19:52;;;;;;;3.08;2.08;;;23.90;57.20;;;;;;5116484;28;20016;-74
2022/07/09 12:22:17;;;;;;;3.10;2.15;;;23.80;57.30;;;;;;5116382;28;20024;-73
2022/07/09 12:24:43;;;;;;;2.75;1.85;;;23.90;57.70;;;;;;5116396;28;20048;-73
2022/07/09 12:27:09;;;;;;;3.42;2.05;;;23.80;56.70;;;;;;5116309;28;20032;-73
2022/07/09 12:29:35;;;;;;;2.40;1.85;;;23.90;57.40;;;;;;5115197;28;20024;-73
2022/07/09 12:32:01;;;;;;;2.40;1.70;;;24.00;56.90;;;;;;5116310;28;20114;-73
2022/07/09 12:34:27;;;;;;;1.67;1.50;;;24.10;57.10;;;;;;5116238;28;20036;-73
2022/07/09 12:36:52;;;;;;;5.60;2.00;;;24.30;57.10;;;;;;5116068;28;20020;-73